Time;durP1;ratioP1;P1;durP2;ratioP2;P2;SDS_P1;SDS_P2;PMS_P1;PMS_P2;Temp;Humidity;BMP_temperature;BMP_pressure;BME280_temperature;BME280_humidity;BME280_pressure;Samples;Min_cycle;Max_cycle;Signal;HPM_P1;HPM_P2
2023/01/25 00:01:35;;;;;;;66.35;32.95;;;;;;;1.10;100.00;103411.28;4790728;29;20122;-78
2023/01/25 00:04:01;;;;;;;68.55;34.67;;;;;;;1.26;100.00;103412.19;4816310;29;20066;-78
2023/01/25 00:06:26;;;;;;;88.63;41.28;;;;;;;1.28;100.00;103408.59;4805589;29;20039;-78
2023/01/25 00:08:52;;;;;;;77.90;36.90;;;;;;;1.18;100.00;103405.88;4808205;29;20066;-78
2023/01/25 00:11:18;;;;;;;74.30;36.47;;;;;;;1.25;100.00;103391.50;4824819;29;20039;-76
2023/01/25 00:13:45;;;;;;;64.40;31.42;;;;;;;1.20;100.00;103402.28;4795987;29;20271;-76
2023/01/25 00:16:10;;;;;;;67.15;34.55;;;;;;;1.27;100.00;103396.00;4818067;29;20039;-76
2023/01/25 00:18:36;;;;;;;66.07;33.72;;;;;;;1.33;100.00;103400.50;4816256;29;20051;-76
2023/01/25 00:21:16;;;;;;;66.72;34.28;;;;;;;1.31;100.00;103405.00;4788071;29;20099;-77
2023/01/25 00:23:41;;;;;;;64.85;33.13;;;;;;;1.05;100.00;103404.94;4809836;29;20535;-76
2023/01/25 00:26:07;;;;;;;74.25;37.00;;;;;;;1.15;100.00;103385.22;4806802;29;20096;-77
2023/01/25 00:28:33;;;;;;;72.82;35.60;;;;;;;1.18;100.00;103404.09;4786327;29;20043;-76
2023/01/25 00:31:00;;;;;;;79.05;36.85;;;;;;;1.02;100.00;103395.06;4801916;29;20027;-76
2023/01/25 00:33:33;;;;;;;82.40;39.30;;;;;;;1.15;100.00;103395.06;4796878;29;20410;-76
2023/01/25 00:36:00;;;;;;;89.38;39.45;;;;;;;1.21;100.00;103392.41;4819055;29;20408;-76
2023/01/25 00:38:33;;;;;;;80.97;38.92;;;;;;;1.20;100.00;103394.19;4817398;29;20072;-76
2023/01/25 00:40:59;;;;;;;80.28;38.90;;;;;;;1.15;100.00;103385.22;4806541;29;20049;-76
2023/01/25 00:43:25;;;;;;;76.07;37.42;;;;;;;1.29;100.00;103399.59;4810820;29;20026;-76
2023/01/25 00:45:51;;;;;;;75.50;37.75;;;;;;;1.10;100.00;103389.69;4807432;29;20041;-77
2023/01/25 00:48:16;;;;;;;78.53;36.80;;;;;;;1.06;100.00;103379.78;4804807;29;20072;-77
2023/01/25 00:50:42;;;;;;;88.38;41.05;;;;;;;1.12;100.00;103385.19;4812706;29;20050;-77
2023/01/25 00:53:07;;;;;;;89.45;39.92;;;;;;;1.17;100.00;103382.50;4796636;29;20034;-76
2023/01/25 00:55:33;;;;;;;86.22;41.55;;;;;;;1.21;100.00;103382.50;4793623;29;20047;-77
2023/01/25 00:57:58;;;;;;;80.65;38.97;;;;;;;1.24;100.00;103393.28;4798165;29;20038;-76
2023/01/25 01:00:23;;;;;;;89.60;41.80;;;;;;;1.24;100.00;103377.09;4810522;29;20046;-76
2023/01/25 01:02:49;;;;;;;99.32;44.78;;;;;;;1.09;100.00;103385.19;4779770;29;20042;-77
2023/01/25 01:05:14;;;;;;;94.57;42.67;;;;;;;1.17;100.00;103383.41;4816868;29;20057;-76
2023/01/25 01:07:40;;;;;;;90.13;41.75;;;;;;;1.21;100.00;103378.91;4815104;29;20042;-77
2023/01/25 01:10:06;;;;;;;97.07;43.80;;;;;;;1.20;100.00;103383.41;4811453;29;20043;-77
2023/01/25 01:12:31;;;;;;;90.30;41.60;;;;;;;1.28;100.00;103369.94;4816560;29;20130;-76
2023/01/25 01:14:57;;;;;;;89.10;41.35;;;;;;;1.21;100.00;103377.09;4796635;29;20493;-76
2023/01/25 01:17:23;;;;;;;87.10;41.25;;;;;;;1.19;100.00;103360.00;4809531;29;20063;-76
2023/01/25 01:19:49;;;;;;;86.07;40.85;;;;;;;1.19;100.00;103370.81;4819585;29;20038;-76
2023/01/25 01:22:14;;;;;;;92.28;41.17;;;;;;;1.18;100.00;103368.09;4788248;29;20041;-77
2023/01/25 01:24:40;;;;;;;83.25;39.03;;;;;;;1.10;100.00;103365.41;4810643;29;20078;-76
2023/01/25 01:27:06;;;;;;;84.32;37.47;;;;;;;1.02;100.00;103368.09;4811159;29;20474;-77
2023/01/25 01:29:31;;;;;;;87.65;40.83;;;;;;;1.01;100.00;103370.78;4810636;29;20063;-77
2023/01/25 01:31:57;;;;;;;81.22;40.47;;;;;;;0.99;100.00;103375.28;4818478;29;20039;-76
2023/01/25 01:34:22;;;;;;;86.75;39.28;;;;;;;1.02;100.00;103369.91;4792919;29;20053;-76
2023/01/25 01:36:48;;;;;;;86.63;39.85;;;;;;;0.99;100.00;103378.00;4792606;29;20415;-77
2023/01/25 01:39:13;;;;;;;86.00;39.03;;;;;;;0.87;100.00;103368.97;4781740;29;20072;-77
2023/01/25 01:41:39;;;;;;;88.13;40.92;;;;;;;0.87;100.00;103365.34;4808402;29;20038;-76
2023/01/25 01:44:05;;;;;;;88.05;40.53;;;;;;;0.97;100.00;103371.66;4808475;29;20113;-76
2023/01/25 01:46:32;;;;;;;75.43;36.35;;;;;;;0.93;100.00;103372.56;4785844;29;20467;-76
2023/01/25 01:49:11;;;;;;;71.82;35.67;;;;;;;1.02;100.00;103372.59;4802649;29;20032;-77
2023/01/25 01:51:46;;;;;;;84.18;39.60;;;;;;;1.06;100.00;103380.69;4816990;29;20041;-77
2023/01/25 01:54:24;;;;;;;89.15;42.03;;;;;;;0.96;100.00;103380.69;4812547;29;20407;-77
2023/01/25 01:57:11;;;;;;;89.78;40.33;;;;;;;0.96;100.00;103380.69;4814673;29;20042;-77
2023/01/25 01:59:39;;;;;;;91.68;42.65;;;;;;;0.95;100.00;103376.16;4808561;29;20085;-76
2023/01/25 02:02:05;;;;;;;87.05;40.67;;;;;;;0.94;100.00;103369.88;4798579;29;20376;-77
2023/01/25 02:04:31;;;;;;;84.18;38.78;;;;;;;1.05;100.00;103369.88;4790207;29;20038;-76
2023/01/25 02:07:31;;;;;;;90.00;40.60;;;;;;;0.93;100.00;103373.47;4825210;29;20416;-76
2023/01/25 02:09:58;;;;;;;89.13;41.53;;;;;;;1.02;100.00;103364.50;4755866;29;20046;-77
2023/01/25 02:12:24;;;;;;;83.80;40.28;;;;;;;1.11;100.00;103369.91;4798149;29;20107;-77
2023/01/25 02:14:52;;;;;;;95.28;43.72;;;;;;;1.01;100.00;103374.38;4790856;29;20503;-77
2023/01/25 02:17:26;;;;;;;90.15;41.95;;;;;;;1.03;100.00;103371.69;4801045;29;20554;-76
2023/01/25 02:20:10;;;;;;;92.07;42.33;;;;;;;1.07;100.00;103369.00;4789126;29;20091;-77
2023/01/25 02:22:43;;;;;;;87.43;40.30;;;;;;;1.01;100.00;103357.31;4813485;29;20038;-76
2023/01/25 02:25:10;;;;;;;92.15;41.88;;;;;;;1.01;100.00;103366.28;4783646;29;20087;-76
2023/01/25 02:27:44;;;;;;;91.82;41.22;;;;;;;1.03;100.00;103363.59;4815727;29;20126;-76
2023/01/25 02:30:10;;;;;;;88.85;40.60;;;;;;;0.81;100.00;103347.38;4822923;29;20034;-76
2023/01/25 02:32:36;;;;;;;91.35;41.95;;;;;;;0.94;100.00;103355.50;4802798;29;20050;-76
2023/01/25 02:35:01;;;;;;;98.95;43.45;;;;;;;0.80;100.00;103345.56;4819056;29;20567;-77
2023/01/25 02:37:27;;;;;;;93.03;43.58;;;;;;;0.82;100.00;103351.88;4791483;29;20045;-77
2023/01/25 02:39:52;;;;;;;101.88;43.70;;;;;;;0.85;100.00;103341.13;4816176;29;20099;-76
2023/01/25 02:42:18;;;;;;;86.97;40.47;;;;;;;0.96;100.00;103356.41;4807716;29;20038;-76
2023/01/25 02:44:43;;;;;;;89.30;41.78;;;;;;;0.94;100.00;103351.00;4807824;29;20043;-76
2023/01/25 02:47:09;;;;;;;101.57;42.45;;;;;;;0.96;100.00;103335.72;4807710;29;20059;-76
2023/01/25 02:49:37;;;;;;;94.75;41.80;;;;;;;1.00;100.00;103339.31;4814940;29;20074;-76
2023/01/25 02:52:03;;;;;;;91.35;41.33;;;;;;;1.00;100.00;103351.03;4801475;29;20055;-77
2023/01/25 02:54:29;;;;;;;91.53;42.20;;;;;;;1.00;100.00;103336.59;4801168;29;20595;-76
2023/01/25 02:56:55;;;;;;;89.07;41.88;;;;;;;0.94;100.00;103337.50;4800237;29;20047;-77
2023/01/25 02:59:20;;;;;;;95.32;43.92;;;;;;;0.90;100.00;103333.91;4812638;29;20070;-77
2023/01/25 03:01:46;;;;;;;93.90;44.60;;;;;;;0.81;100.00;103333.00;4804993;29;20046;-76
2023/01/25 03:04:12;;;;;;;89.75;43.83;;;;;;;0.87;100.00;103338.38;4810564;29;20512;-76
2023/01/25 03:06:38;;;;;;;102.70;46.03;;;;;;;0.95;100.00;103330.31;4824099;29;20401;-76
2023/01/25 03:09:06;;;;;;;93.97;43.03;;;;;;;0.89;100.00;103328.53;4796688;29;20042;-76
2023/01/25 03:11:32;;;;;;;100.03;44.38;;;;;;;0.84;100.00;103327.63;4805339;29;20031;-76
2023/01/25 03:13:58;;;;;;;106.00;44.85;;;;;;;0.80;100.00;103313.22;4813664;29;20034;-77
2023/01/25 03:16:23;;;;;;;99.25;45.17;;;;;;;0.94;100.00;103324.03;4799264;29;20048;-76
2023/01/25 03:18:53;;;;;;;107.47;48.40;;;;;;;0.95;100.00;103322.22;4799971;29;20137;-77
2023/01/25 03:21:19;;;;;;;105.22;46.40;;;;;;;1.03;100.00;103315.03;4804566;29;20114;-77
2023/01/25 03:23:46;;;;;;;103.45;45.95;;;;;;;1.00;100.00;103318.66;4805198;29;20109;-76
2023/01/25 03:26:12;;;;;;;112.15;47.30;;;;;;;0.98;100.00;103316.84;4780712;29;20035;-76
2023/01/25 03:28:39;;;;;;;97.28;42.45;;;;;;;0.98;100.00;103306.94;4807193;29;20479;-76
2023/01/25 03:31:05;;;;;;;98.22;42.85;;;;;;;1.00;100.00;103309.63;4804233;29;20058;-76
2023/01/25 03:33:31;;;;;;;96.43;44.13;;;;;;;1.04;100.00;103317.75;4806133;29;20050;-77
2023/01/25 03:35:57;;;;;;;99.82;43.30;;;;;;;0.88;100.00;103311.41;4805108;29;20403;-76
2023/01/25 03:38:23;;;;;;;96.45;43.63;;;;;;;0.76;100.00;103308.72;4814166;29;20487;-76
2023/01/25 03:40:48;;;;;;;99.95;44.20;;;;;;;0.78;100.00;103304.22;4794275;29;20518;-76
2023/01/25 03:43:14;;;;;;;99.90;44.28;;;;;;;0.77;100.00;103305.16;4810502;29;20042;-77
2023/01/25 03:45:40;;;;;;;96.35;43.92;;;;;;;1.01;100.00;103308.75;4795081;29;20047;-76
2023/01/25 03:48:06;;;;;;;95.20;43.88;;;;;;;0.87;100.00;103300.63;4813255;29;20076;-76
2023/01/25 03:50:31;;;;;;;103.18;44.25;;;;;;;0.75;100.00;103301.53;4813016;29;20043;-76
2023/01/25 03:53:30;;;;;;;98.38;44.67;;;;;;;0.94;100.00;103296.16;4802251;29;20054;-76
2023/01/25 03:55:57;;;;;;;105.68;44.15;;;;;;;0.91;100.00;103306.03;4777859;29;20445;-76
2023/01/25 03:58:23;;;;;;;105.40;44.67;;;;;;;0.78;100.00;103289.84;4793731;29;20042;-77
2023/01/25 04:00:49;;;;;;;107.00;46.28;;;;;;;0.83;100.00;103296.16;4814486;29;20047;-76
2023/01/25 04:03:16;;;;;;;91.28;40.70;;;;;;;0.73;100.00;103295.22;4807604;29;20038;-76
2023/01/25 04:05:42;;;;;;;84.47;38.72;;;;;;;0.69;100.00;103299.72;4803096;29;20070;-77
2023/01/25 04:08:07;;;;;;;87.65;39.15;;;;;;;0.59;100.00;103302.38;4801572;29;20073;-76
2023/01/25 04:10:33;;;;;;;91.53;40.05;;;;;;;0.50;100.00;103297.88;4790334;29;20050;-76
2023/01/25 04:12:58;;;;;;;83.13;38.25;;;;;;;0.49;100.00;103294.31;4803277;29;20047;-77
2023/01/25 04:15:23;;;;;;;91.63;38.78;;;;;;;0.46;100.00;103286.19;4775831;29;20621;-77
2023/01/25 04:17:49;;;;;;;96.60;41.85;;;;;;;0.50;100.00;103288.00;4815387;29;20046;-77
2023/01/25 04:20:15;;;;;;;98.20;42.65;;;;;;;0.50;100.00;103288.00;4807307;29;20054;-76
2023/01/25 04:22:40;;;;;;;99.97;40.67;;;;;;;0.58;100.00;103284.44;4791169;29;20494;-77
2023/01/25 04:25:06;;;;;;;97.63;41.92;;;;;;;0.54;100.00;103283.50;4798645;29;20043;-76
2023/01/25 04:27:32;;;;;;;97.93;41.33;;;;;;;0.49;100.00;103280.81;4805641;29;20468;-77
2023/01/25 04:29:57;;;;;;;91.35;39.67;;;;;;;0.45;100.00;103289.78;4801871;29;20079;-77
2023/01/25 04:32:22;;;;;;;96.50;41.38;;;;;;;0.59;100.00;103283.53;4806680;29;20039;-77
2023/01/25 04:34:48;;;;;;;91.18;38.25;;;;;;;0.48;100.00;103284.41;4799208;29;20043;-77
2023/01/25 04:37:13;;;;;;;102.45;40.67;;;;;;;0.54;100.00;103286.19;4799637;29;20042;-76
2023/01/25 04:39:39;;;;;;;85.68;37.65;;;;;;;0.38;100.00;103273.59;4817433;29;20513;-77
2023/01/25 04:42:04;;;;;;;78.50;36.10;;;;;;;0.33;100.00;103282.56;4809127;29;20039;-77
2023/01/25 04:44:30;;;;;;;80.13;36.22;;;;;;;0.32;100.00;103278.06;4809352;29;20038;-76
2023/01/25 04:46:55;;;;;;;86.35;37.08;;;;;;;0.41;100.00;103274.53;4795212;29;20049;-76
2023/01/25 04:49:20;;;;;;;73.90;35.38;;;;;;;0.46;100.00;103270.03;4806977;29;20052;-77
2023/01/25 04:51:46;;;;;;;78.20;35.85;;;;;;;0.51;100.00;103262.84;4820755;29;20077;-77
2023/01/25 04:54:11;;;;;;;71.22;33.85;;;;;;;0.45;100.00;103268.22;4819512;29;20076;-77
2023/01/25 04:56:37;;;;;;;78.07;33.55;;;;;;;0.48;100.00;103267.34;4781481;29;20035;-76
2023/01/25 04:59:02;;;;;;;74.25;34.38;;;;;;;0.26;100.00;103234.94;4809991;29;20055;-77
2023/01/25 05:01:27;;;;;;;75.45;35.25;;;;;;;0.41;100.00;103262.81;4790023;29;20053;-76
2023/01/25 05:03:53;;;;;;;71.78;34.03;;;;;;;0.23;100.00;103251.13;4821227;29;20110;-77
2023/01/25 05:06:18;;;;;;;75.50;34.58;;;;;;;0.31;100.00;103256.50;4808550;29;20135;-76
2023/01/25 05:08:44;;;;;;;71.18;32.80;;;;;;;0.30;100.00;103252.03;4781858;29;20043;-76
2023/01/25 05:11:09;;;;;;;73.38;34.40;;;;;;;0.12;100.00;103255.56;4773770;29;20046;-77
2023/01/25 05:13:34;;;;;;;77.78;34.58;;;;;;;0.03;100.00;103244.75;4812693;29;20510;-76
2023/01/25 05:16:00;;;;;;;72.22;33.25;;;;;;;0.16;100.00;103255.59;4794838;29;20047;-76
2023/01/25 05:18:25;;;;;;;68.68;31.95;;;;;;;0.20;100.00;103245.72;4792500;29;20054;-76
2023/01/25 05:20:55;;;;;;;71.47;32.08;;;;;;;0.32;100.00;103248.44;4823868;29;20042;-77
2023/01/25 05:23:20;;;;;;;74.22;35.05;;;;;;;0.27;100.00;103246.63;4795623;29;20058;-76
2023/01/25 05:28:29;;;;;;;67.70;34.05;;;;;;;-0.03;100.00;103254.59;4786569;29;20108;-77
2023/01/25 05:30:55;;;;;;;73.70;34.65;;;;;;;-0.09;100.00;103251.88;4809828;29;20084;-77
2023/01/25 05:33:20;;;;;;;75.03;35.58;;;;;;;0.00;100.00;103256.44;4814994;29;20058;-77
2023/01/25 05:35:46;;;;;;;73.75;32.90;;;;;;;-0.03;100.00;103251.03;4794194;29;20410;-75
2023/01/25 05:38:11;;;;;;;72.97;31.73;;;;;;;-0.11;100.00;103253.69;4817525;29;20050;-77
2023/01/25 05:40:37;;;;;;;78.20;36.17;;;;;;;0.02;100.00;103251.03;4797996;29;20453;-76
2023/01/25 05:43:02;;;;;;;85.55;38.83;;;;;;;0.09;100.00;103240.28;4783556;29;20495;-76
2023/01/25 05:45:29;;;;;;;78.88;36.08;;;;;;;0.21;100.00;103252.00;4793410;29;20126;-76
2023/01/25 05:47:58;;;;;;;74.65;35.83;;;;;;;0.24;100.00;103252.91;4795041;29;20050;-75
2023/01/25 05:50:24;;;;;;;75.50;34.25;;;;;;;0.37;100.00;103253.84;4827730;29;20513;-76
2023/01/25 05:52:50;;;;;;;75.03;35.15;;;;;;;0.27;100.00;103246.63;4827147;29;20117;-77
2023/01/25 05:55:15;;;;;;;73.63;34.50;;;;;;;0.17;100.00;103245.69;4791328;29;20118;-77
2023/01/25 05:57:41;;;;;;;76.05;35.45;;;;;;;0.30;100.00;103236.75;4815946;29;20057;-78
2023/01/25 06:00:08;;;;;;;78.50;36.38;;;;;;;0.13;100.00;103238.50;4801607;29;20034;-78
2023/01/25 06:02:33;;;;;;;79.63;35.60;;;;;;;0.05;100.00;103237.56;4801138;29;20448;-77
2023/01/25 06:04:59;;;;;;;79.43;36.15;;;;;;;0.07;100.00;103252.84;4801808;29;20043;-77
2023/01/25 06:07:24;;;;;;;80.90;36.50;;;;;;;0.16;100.00;103236.72;4796182;29;20667;-77
2023/01/25 06:09:50;;;;;;;83.22;36.90;;;;;;;0.11;100.00;103241.19;4809000;29;20439;-78
2023/01/25 06:12:19;;;;;;;76.35;34.75;;;;;;;0.20;100.00;103240.34;4792423;29;20053;-77
2023/01/25 06:14:46;;;;;;;81.70;36.33;;;;;;;0.32;100.00;103245.72;4809338;29;20452;-77
2023/01/25 06:17:12;;;;;;;81.63;37.22;;;;;;;0.33;100.00;103242.16;4804606;29;20126;-78
2023/01/25 06:19:37;;;;;;;82.55;38.72;;;;;;;0.34;100.00;103230.50;4806704;29;20113;-77
2023/01/25 06:22:03;;;;;;;85.60;37.65;;;;;;;0.33;100.00;103241.25;4782548;29;20814;-77
2023/01/25 06:24:28;;;;;;;82.70;37.30;;;;;;;0.30;100.00;103242.16;4821343;29;20047;-77
2023/01/25 06:26:53;;;;;;;84.70;37.20;;;;;;;0.06;100.00;103226.81;4791537;29;20111;-77
2023/01/25 06:29:19;;;;;;;84.63;40.35;;;;;;;0.09;100.00;103231.31;4792062;29;20086;-78
2023/01/25 06:31:44;;;;;;;85.30;38.03;;;;;;;0.29;100.00;103236.75;4777886;29;20138;-77
2023/01/25 06:34:10;;;;;;;90.88;42.17;;;;;;;0.14;100.00;103216.06;4791087;29;20387;-77
2023/01/25 06:36:35;;;;;;;87.82;38.88;;;;;;;0.12;100.00;103226.81;4817878;29;20525;-77
2023/01/25 06:39:01;;;;;;;93.22;39.70;;;;;;;-0.09;100.00;103229.47;4805728;29;20047;-77
2023/01/25 06:41:26;;;;;;;90.65;41.22;;;;;;;-0.15;100.00;103222.25;4803304;29;20117;-77
2023/01/25 06:43:52;;;;;;;94.55;40.95;;;;;;;-0.09;100.00;103226.75;4822142;29;20042;-77
2023/01/25 06:46:18;;;;;;;90.47;41.20;;;;;;;-0.11;100.00;103232.16;4795213;29;20098;-77
2023/01/25 06:48:44;;;;;;;92.18;39.70;;;;;;;-0.07;100.00;103214.19;4801527;29;20574;-77
2023/01/25 06:51:13;;;;;;;89.30;41.10;;;;;;;0.17;100.00;103232.22;4807465;29;20039;-77
2023/01/25 06:53:42;;;;;;;99.40;41.00;;;;;;;-0.05;100.00;103232.16;4776004;29;20043;-77
2023/01/25 06:56:13;;;;;;;96.80;41.22;;;;;;;0.11;100.00;103230.41;4807214;29;20043;-76
2023/01/25 06:58:39;;;;;;;95.90;42.97;;;;;;;0.05;100.00;103226.78;4795748;29;20171;-77
2023/01/25 07:01:11;;;;;;;113.10;41.58;;;;;;;-0.07;100.00;103235.75;4795107;29;20133;-77
2023/01/25 07:03:37;;;;;;;99.93;41.28;;;;;;;0.01;100.00;103216.94;4810898;29;20058;-79
2023/01/25 07:06:05;;;;;;;98.32;41.53;;;;;;;0.18;100.00;103229.56;4820178;29;20051;-76
2023/01/25 07:08:32;;;;;;;93.93;42.15;;;;;;;0.31;100.00;103234.94;4816432;29;20035;-76
2023/01/25 07:11:01;;;;;;;93.05;40.60;;;;;;;0.07;100.00;103225.03;4792271;29;20046;-77
2023/01/25 07:13:29;;;;;;;100.55;41.85;;;;;;;0.06;100.00;103232.19;4817195;29;20038;-77
2023/01/25 07:15:56;;;;;;;99.53;43.20;;;;;;;0.20;100.00;103231.31;4811794;29;20034;-76
2023/01/25 07:18:22;;;;;;;93.70;41.97;;;;;;;0.13;100.00;103228.66;4813310;29;20034;-75
2023/01/25 07:20:48;;;;;;;103.68;43.83;;;;;;;0.13;100.00;103233.09;4792839;29;20043;-75
2023/01/25 07:23:13;;;;;;;101.43;45.08;;;;;;;0.11;100.00;103227.72;4805706;29;20043;-76
2023/01/25 07:25:45;;;;;;;105.82;44.20;;;;;;;0.28;100.00;103224.16;4794524;29;20126;-74
2023/01/25 07:28:11;;;;;;;104.72;41.40;;;;;;;0.21;100.00;103220.56;4805927;29;20074;-76
2023/01/25 07:30:37;;;;;;;100.80;41.45;;;;;;;0.22;100.00;103226.88;4813496;29;20034;-75
2023/01/25 07:33:02;;;;;;;101.97;42.85;;;;;;;0.29;100.00;103217.88;4814554;29;20163;-76
2023/01/25 07:35:27;;;;;;;106.95;43.83;;;;;;;0.12;100.00;103223.25;4807333;29;20065;-78
2023/01/25 07:37:54;;;;;;;110.10;45.63;;;;;;;0.16;100.00;103217.88;4800474;29;20043;-74
2023/01/25 07:40:20;;;;;;;105.13;45.78;;;;;;;0.17;100.00;103216.06;4785778;29;20031;-74
2023/01/25 07:42:45;;;;;;;104.85;44.33;;;;;;;0.14;100.00;103206.19;4794873;29;20027;-75
2023/01/25 07:45:11;;;;;;;112.13;44.72;;;;;;;0.04;100.00;103211.56;4800033;29;20043;-75
2023/01/25 07:47:36;;;;;;;103.10;43.60;;;;;;;-0.04;100.00;103207.03;4820794;29;20038;-75
2023/01/25 07:50:02;;;;;;;114.25;45.45;;;;;;;0.08;100.00;103207.97;4789236;29;20117;-77
2023/01/25 07:52:27;;;;;;;111.22;47.88;;;;;;;0.05;100.00;103207.94;4806949;29;20034;-77
2023/01/25 07:54:53;;;;;;;106.40;43.30;;;;;;;0.21;100.00;103206.19;4793482;29;20396;-77
2023/01/25 07:57:19;;;;;;;106.07;44.83;;;;;;;0.04;100.00;103207.06;4793251;29;20126;-77
2023/01/25 07:59:44;;;;;;;93.47;40.67;;;;;;;-0.08;100.00;103215.06;4804191;29;20485;-76
2023/01/25 08:02:11;;;;;;;108.50;43.80;;;;;;;0.05;100.00;103213.34;4807644;29;20113;-76
2023/01/25 08:04:36;;;;;;;122.15;44.10;;;;;;;0.11;100.00;103213.34;4806553;29;20037;-76
2023/01/25 08:07:02;;;;;;;109.50;45.83;;;;;;;0.15;100.00;103215.19;4789502;29;20493;-76
2023/01/25 08:09:27;;;;;;;105.00;44.25;;;;;;;0.12;100.00;103212.47;4789791;29;20432;-76
2023/01/25 08:11:52;;;;;;;111.70;46.47;;;;;;;0.22;100.00;103222.38;4789228;29;20107;-76
2023/01/25 08:14:18;;;;;;;106.70;45.65;;;;;;;0.12;100.00;103218.75;4805640;29;20046;-76
2023/01/25 08:16:44;;;;;;;108.30;44.28;;;;;;;-0.03;100.00;103206.13;4789547;29;20106;-76
2023/01/25 08:19:10;;;;;;;113.25;46.58;;;;;;;0.20;100.00;103223.25;4774546;29;20034;-76
2023/01/25 08:21:36;;;;;;;111.68;44.30;;;;;;;0.10;100.00;103212.47;4805308;29;20040;-76
2023/01/25 08:24:06;;;;;;;105.93;44.67;;;;;;;0.22;100.00;103206.19;4805557;29;20395;-77
2023/01/25 08:26:33;;;;;;;106.63;43.60;;;;;;;0.35;100.00;103209.81;4811329;29;20069;-76
2023/01/25 08:28:58;;;;;;;110.68;46.22;;;;;;;0.27;100.00;103204.41;4797850;29;20618;-76
2023/01/25 08:31:30;;;;;;;118.57;46.15;;;;;;;0.14;100.00;103198.09;4789315;29;20035;-76
2023/01/25 08:33:57;;;;;;;111.80;45.47;;;;;;;0.09;100.00;103201.69;4805639;29;20041;-76
2023/01/25 08:36:26;;;;;;;110.63;45.78;;;;;;;0.09;100.00;103210.66;4790251;29;20039;-76
2023/01/25 08:39:00;;;;;;;106.50;46.08;;;;;;;0.08;100.00;103199.88;4790034;29;20360;-76
2023/01/25 08:41:28;;;;;;;112.10;44.00;;;;;;;-0.03;100.00;103189.97;4798752;29;20035;-77
2023/01/25 08:43:54;;;;;;;108.45;44.25;;;;;;;-0.01;100.00;103187.28;4803775;29;20480;-76
2023/01/25 08:46:21;;;;;;;116.00;46.13;;;;;;;-0.02;100.00;103193.56;4820060;29;20045;-76
2023/01/25 08:48:46;;;;;;;113.22;44.22;;;;;;;-0.05;100.00;103193.56;4823817;29;20043;-77
2023/01/25 08:51:14;;;;;;;103.53;43.20;;;;;;;-0.03;100.00;103194.47;4823863;29;20074;-76
2023/01/25 08:53:40;;;;;;;113.22;45.45;;;;;;;-0.08;100.00;103182.78;4822558;29;20046;-77
2023/01/25 08:56:08;;;;;;;117.90;46.30;;;;;;;-0.17;100.00;103172.00;4806657;29;20038;-76
2023/01/25 08:58:33;;;;;;;101.72;41.70;;;;;;;0.03;100.00;103185.50;4817370;29;20513;-76
2023/01/25 09:01:04;;;;;;;117.80;44.92;;;;;;;0.03;100.00;103190.91;4789375;29;20035;-76
2023/01/25 09:03:30;;;;;;;108.68;45.88;;;;;;;-0.07;100.00;103190.84;4794381;29;20117;-77
2023/01/25 09:05:56;;;;;;;107.30;43.90;;;;;;;0.14;100.00;103192.72;4823623;29;20042;-77
2023/01/25 09:08:21;;;;;;;103.75;41.28;;;;;;;0.02;100.00;103178.31;4792210;29;20110;-76
2023/01/25 09:10:46;;;;;;;109.45;45.22;;;;;;;-0.02;100.00;103182.78;4801095;29;20516;-76
2023/01/25 09:13:13;;;;;;;119.78;45.67;;;;;;;0.03;100.00;103170.22;4803168;29;20061;-76
2023/01/25 09:15:38;;;;;;;116.55;45.03;;;;;;;0.07;100.00;103177.44;4794161;29;20045;-76
2023/01/25 09:18:04;;;;;;;107.95;44.35;;;;;;;0.06;100.00;103180.13;4789227;29;20407;-76
2023/01/25 09:20:29;;;;;;;105.05;43.17;;;;;;;0.09;100.00;103170.25;4808296;29;20035;-76
2023/01/25 09:22:54;;;;;;;104.72;43.60;;;;;;;-0.02;100.00;103170.25;4808147;29;20043;-77
2023/01/25 09:25:20;;;;;;;107.82;43.72;;;;;;;0.01;100.00;103163.06;4806811;29;20047;-77
2023/01/25 09:27:49;;;;;;;107.18;45.20;;;;;;;-0.11;100.00;103162.13;4792293;29;20130;-76
2023/01/25 09:30:15;;;;;;;106.38;44.10;;;;;;;-0.26;100.00;103163.00;4808136;29;20058;-76
2023/01/25 09:32:40;;;;;;;112.90;45.53;;;;;;;-0.25;100.00;103172.84;4807322;29;20047;-77
2023/01/25 09:35:06;;;;;;;99.40;42.50;;;;;;;-0.31;100.00;103161.16;4789470;29;20046;-77
2023/01/25 09:37:31;;;;;;;100.93;43.95;;;;;;;-0.35;100.00;103165.63;4809755;29;20050;-77
2023/01/25 09:39:56;;;;;;;113.40;45.58;;;;;;;-0.40;100.00;103156.66;4810130;29;20039;-77
2023/01/25 09:42:55;;;;;;;111.18;44.17;;;;;;;-0.22;100.00;103164.78;4812904;29;20125;-76
2023/01/25 09:45:33;;;;;;;107.60;41.75;;;;;;;-0.24;100.00;103169.28;4802317;29;20128;-76
2023/01/25 09:48:01;;;;;;;107.85;42.10;;;;;;;-0.09;100.00;103167.53;4825009;29;20037;-77
2023/01/25 09:50:51;;;;;;;101.15;41.15;;;;;;;-0.22;100.00;103166.59;4823236;29;20479;-76
2023/01/25 09:53:33;;;;;;;100.25;40.90;;;;;;;-0.15;100.00;103173.78;4807314;29;20042;-76
2023/01/25 09:56:03;;;;;;;94.63;40.15;;;;;;;-0.23;100.00;103168.38;4806980;29;20093;-76
2023/01/25 09:58:51;;;;;;;108.35;39.55;;;;;;;-0.08;100.00;103172.00;4806685;29;20034;-76
2023/01/25 10:01:40;;;;;;;107.35;43.28;;;;;;;-0.13;100.00;103169.31;4807817;29;20515;-76
2023/01/25 10:04:15;;;;;;;104.85;41.47;;;;;;;-0.17;100.00;103161.22;4793624;29;21734;-76
2023/01/25 10:06:44;;;;;;;98.85;39.67;;;;;;;-0.03;100.00;103156.78;4794818;29;20430;-76
2023/01/25 10:09:23;;;;;;;100.70;41.88;;;;;;;0.03;100.00;103156.78;4826187;29;20554;-77
2023/01/25 10:11:48;;;;;;;105.90;39.88;;;;;;;-0.02;100.00;103155.88;4824715;29;20037;-77
2023/01/25 10:14:17;;;;;;;98.93;40.35;;;;;;;-0.12;100.00;103154.94;4822595;29;20047;-77
2023/01/25 10:16:57;;;;;;;107.40;41.50;;;;;;;-0.09;100.00;103156.75;4807844;29;20045;-77
2023/01/25 10:19:32;;;;;;;104.97;41.65;;;;;;;0.08;100.00;103152.31;4791544;29;20043;-77
2023/01/25 10:22:07;;;;;;;102.15;41.53;;;;;;;0.09;100.00;103148.72;4808252;29;20411;-77
2023/01/25 10:24:35;;;;;;;106.35;42.50;;;;;;;-0.06;100.00;103149.59;4791014;29;20042;-77
2023/01/25 10:27:18;;;;;;;98.18;41.45;;;;;;;-0.12;100.00;103145.97;4776191;29;20380;-77
2023/01/25 10:29:44;;;;;;;101.25;39.92;;;;;;;-0.11;100.00;103147.78;4814105;29;20054;-77
2023/01/25 10:32:22;;;;;;;105.47;41.88;;;;;;;-0.07;100.00;103139.69;4824809;29;20095;-77
2023/01/25 10:34:53;;;;;;;101.57;40.88;;;;;;;-0.30;100.00;103130.66;4809119;29;20067;-77
2023/01/25 10:37:21;;;;;;;111.13;44.72;;;;;;;-0.01;100.00;103134.31;4798056;29;20046;-77
2023/01/25 10:40:13;;;;;;;102.10;42.58;;;;;;;0.01;100.00;103128.06;4806116;29;20049;-77
2023/01/25 10:43:01;;;;;;;104.43;42.28;;;;;;;0.02;100.00;103127.16;4790290;29;20064;-77
2023/01/25 10:45:26;;;;;;;108.00;41.75;;;;;;;-0.06;100.00;103121.75;4807162;29;20051;-77
2023/01/25 10:48:08;;;;;;;103.97;42.33;;;;;;;-0.13;100.00;103122.63;4776034;29;20445;-77
2023/01/25 10:50:45;;;;;;;107.30;41.28;;;;;;;-0.10;100.00;103110.09;4806578;29;20111;-77
2023/01/25 10:53:23;;;;;;;108.30;42.90;;;;;;;-0.05;100.00;103110.06;4811515;29;20042;-77
2023/01/25 10:56:01;;;;;;;110.15;42.45;;;;;;;-0.35;100.00;103092.97;4808537;29;20034;-77
2023/01/25 10:58:35;;;;;;;111.25;42.63;;;;;;;-0.15;100.00;103089.44;4815611;29;20035;-77
2023/01/25 11:01:01;;;;;;;111.32;42.55;;;;;;;0.01;100.00;103093.06;4791982;29;20147;-77
2023/01/25 11:03:43;;;;;;;108.85;44.30;;;;;;;0.07;100.00;103082.28;4805660;29;20573;-77
2023/01/25 11:06:09;;;;;;;110.43;43.80;;;;;;;-0.03;100.00;103070.63;4805514;29;20125;-77
2023/01/25 11:08:40;;;;;;;119.78;43.05;;;;;;;-0.11;100.00;103065.22;4806814;29;20158;-77
2023/01/25 11:11:32;;;;;;;103.72;40.78;;;;;;;-0.19;100.00;103062.50;4790261;29;20408;-77